sensor_id;sensor_type;location;lat;lon;timestamp;temperature;humidity
51811;DHT22;52468;40.116;18.296;2023-02-11T00:01:25;6.60;67.40
51811;DHT22;52468;40.116;18.296;2023-02-11T00:03:54;6.60;67.40
51811;DHT22;52468;40.116;18.296;2023-02-11T00:06:23;6.50;66.90
51811;DHT22;52468;40.116;18.296;2023-02-11T00:08:51;6.40;67.10
51811;DHT22;52468;40.116;18.296;2023-02-11T00:11:20;6.20;67.30
51811;DHT22;52468;40.116;18.296;2023-02-11T00:13:48;6.00;67.80
51811;DHT22;52468;40.116;18.296;2023-02-11T00:16:19;6.00;68.10
51811;DHT22;52468;40.116;18.296;2023-02-11T00:18:47;5.90;68.50
51811;DHT22;52468;40.116;18.296;2023-02-11T00:21:20;5.90;68.80
51811;DHT22;52468;40.116;18.296;2023-02-11T00:23:48;5.90;68.90
51811;DHT22;52468;40.116;18.296;2023-02-11T00:26:21;5.90;68.80
51811;DHT22;52468;40.116;18.296;2023-02-11T00:28:50;6.00;68.70
51811;DHT22;52468;40.116;18.296;2023-02-11T00:31:21;6.00;68.70
51811;DHT22;52468;40.116;18.296;2023-02-11T00:33:49;6.00;68.50
51811;DHT22;52468;40.116;18.296;2023-02-11T00:36:21;6.00;68.30
51811;DHT22;52468;40.116;18.296;2023-02-11T00:38:50;5.90;68.40
51811;DHT22;52468;40.116;18.296;2023-02-11T00:41:19;5.80;68.40
51811;DHT22;52468;40.116;18.296;2023-02-11T00:43:48;5.70;68.60
51811;DHT22;52468;40.116;18.296;2023-02-11T00:46:18;5.60;68.70
51811;DHT22;52468;40.116;18.296;2023-02-11T00:48:46;5.50;69.00
51811;DHT22;52468;40.116;18.296;2023-02-11T00:51:15;5.40;69.30
51811;DHT22;52468;40.116;18.296;2023-02-11T00:53:42;5.40;69.80
51811;DHT22;52468;40.116;18.296;2023-02-11T00:56:10;5.30;70.10
51811;DHT22;52468;40.116;18.296;2023-02-11T00:58:38;5.20;70.30
51811;DHT22;52468;40.116;18.296;2023-02-11T01:01:06;5.20;70.30
51811;DHT22;52468;40.116;18.296;2023-02-11T01:03:34;5.30;70.40
51811;DHT22;52468;40.116;18.296;2023-02-11T01:06:04;5.30;70.60
51811;DHT22;52468;40.116;18.296;2023-02-11T01:08:32;5.40;70.70
51811;DHT22;52468;40.116;18.296;2023-02-11T01:11:05;5.50;70.60
51811;DHT22;52468;40.116;18.296;2023-02-11T01:13:34;5.50;70.70
51811;DHT22;52468;40.116;18.296;2023-02-11T01:16:06;5.60;70.40
51811;DHT22;52468;40.116;18.296;2023-02-11T01:18:56;5.70;70.00
51811;DHT22;52468;40.116;18.296;2023-02-11T01:21:44;5.60;69.90
51811;DHT22;52468;40.116;18.296;2023-02-11T01:24:12;5.60;69.90
51811;DHT22;52468;40.116;18.296;2023-02-11T01:26:43;5.60;70.00
51811;DHT22;52468;40.116;18.296;2023-02-11T01:29:11;5.50;70.00
51811;DHT22;52468;40.116;18.296;2023-02-11T01:31:38;5.40;70.10
51811;DHT22;52468;40.116;18.296;2023-02-11T01:34:07;5.30;70.10
51811;DHT22;52468;40.116;18.296;2023-02-11T01:36:36;5.30;70.20
51811;DHT22;52468;40.116;18.296;2023-02-11T01:39:04;5.30;70.40
51811;DHT22;52468;40.116;18.296;2023-02-11T01:41:32;5.40;70.50
51811;DHT22;52468;40.116;18.296;2023-02-11T01:46:50;5.40;70.40
51811;DHT22;52468;40.116;18.296;2023-02-11T01:49:46;5.30;70.40
51811;DHT22;52468;40.116;18.296;2023-02-11T01:52:20;5.30;70.40
51811;DHT22;52468;40.116;18.296;2023-02-11T01:54:54;5.30;70.30
51811;DHT22;52468;40.116;18.296;2023-02-11T01:57:44;5.20;70.30
51811;DHT22;52468;40.116;18.296;2023-02-11T02:11:02;5.00;70.80
51811;DHT22;52468;40.116;18.296;2023-02-11T02:13:32;4.90;70.90
51811;DHT22;52468;40.116;18.296;2023-02-11T02:16:12;5.00;70.90
51811;DHT22;52468;40.116;18.296;2023-02-11T02:33:01;4.50;71.20
51811;DHT22;52468;40.116;18.296;2023-02-11T02:41:06;4.40;72.10
51811;DHT22;52468;40.116;18.296;2023-02-11T02:43:39;4.50;72.20
51811;DHT22;52468;40.116;18.296;2023-02-11T02:46:18;4.50;72.40
51811;DHT22;52468;40.116;18.296;2023-02-11T02:48:47;4.50;72.40
51811;DHT22;52468;40.116;18.296;2023-02-11T02:59:54;4.40;72.70
51811;DHT22;52468;40.116;18.296;2023-02-11T03:10:47;4.30;72.90
51811;DHT22;52468;40.116;18.296;2023-02-11T03:13:19;4.20;73.00
51811;DHT22;52468;40.116;18.296;2023-02-11T03:15:51;4.10;73.20
51811;DHT22;52468;40.116;18.296;2023-02-11T03:18:24;4.10;73.30
51811;DHT22;52468;40.116;18.296;2023-02-11T03:20:53;4.00;73.50
51811;DHT22;52468;40.116;18.296;2023-02-11T03:23:32;4.10;73.60
51811;DHT22;52468;40.116;18.296;2023-02-11T03:26:11;4.00;73.60
51811;DHT22;52468;40.116;18.296;2023-02-11T03:28:56;4.00;73.70
51811;DHT22;52468;40.116;18.296;2023-02-11T03:34:34;4.00;74.00
51811;DHT22;52468;40.116;18.296;2023-02-11T03:40:14;3.90;74.40
51811;DHT22;52468;40.116;18.296;2023-02-11T03:42:53;3.90;74.60
51811;DHT22;52468;40.116;18.296;2023-02-11T03:45:24;3.90;74.70
51811;DHT22;52468;40.116;18.296;2023-02-11T03:50:48;3.90;75.10
51811;DHT22;52468;40.116;18.296;2023-02-11T03:53:19;3.80;75.50
51811;DHT22;52468;40.116;18.296;2023-02-11T03:55:49;3.90;75.70
51811;DHT22;52468;40.116;18.296;2023-02-11T03:58:18;3.80;75.80
51811;DHT22;52468;40.116;18.296;2023-02-11T04:00:45;3.80;76.00
51811;DHT22;52468;40.116;18.296;2023-02-11T04:03:13;3.80;76.10
51811;DHT22;52468;40.116;18.296;2023-02-11T04:05:41;3.80;76.20
51811;DHT22;52468;40.116;18.296;2023-02-11T04:08:09;3.80;76.40
51811;DHT22;52468;40.116;18.296;2023-02-11T04:10:37;3.80;76.40
51811;DHT22;52468;40.116;18.296;2023-02-11T04:13:05;3.80;76.70
51811;DHT22;52468;40.116;18.296;2023-02-11T04:15:33;3.70;76.70
51811;DHT22;52468;40.116;18.296;2023-02-11T04:18:01;3.80;76.90
51811;DHT22;52468;40.116;18.296;2023-02-11T04:20:44;3.80;76.90
51811;DHT22;52468;40.116;18.296;2023-02-11T04:23:12;3.80;76.70
51811;DHT22;52468;40.116;18.296;2023-02-11T04:25:39;3.80;76.90
51811;DHT22;52468;40.116;18.296;2023-02-11T04:28:09;3.80;76.90
51811;DHT22;52468;40.116;18.296;2023-02-11T04:30:36;3.80;77.30
51811;DHT22;52468;40.116;18.296;2023-02-11T04:33:04;3.80;77.40
51811;DHT22;52468;40.116;18.296;2023-02-11T04:35:32;3.80;77.70
51811;DHT22;52468;40.116;18.296;2023-02-11T04:38:00;3.90;77.60
51811;DHT22;52468;40.116;18.296;2023-02-11T04:40:28;3.90;77.80
51811;DHT22;52468;40.116;18.296;2023-02-11T04:42:56;3.90;77.80
51811;DHT22;52468;40.116;18.296;2023-02-11T04:45:24;3.90;78.10
51811;DHT22;52468;40.116;18.296;2023-02-11T04:47:52;3.90;78.00
51811;DHT22;52468;40.116;18.296;2023-02-11T04:50:20;3.90;77.90
51811;DHT22;52468;40.116;18.296;2023-02-11T04:52:48;3.90;78.00
51811;DHT22;52468;40.116;18.296;2023-02-11T04:55:16;3.90;78.30
51811;DHT22;52468;40.116;18.296;2023-02-11T04:57:43;3.90;78.40
51811;DHT22;52468;40.116;18.296;2023-02-11T05:00:12;3.90;78.50
51811;DHT22;52468;40.116;18.296;2023-02-11T05:02:40;3.90;78.60
51811;DHT22;52468;40.116;18.296;2023-02-11T05:05:08;3.90;78.70
51811;DHT22;52468;40.116;18.296;2023-02-11T05:07:35;3.90;78.70
51811;DHT22;52468;40.116;18.296;2023-02-11T05:10:04;3.80;78.70
51811;DHT22;52468;40.116;18.296;2023-02-11T05:12:32;3.80;78.80
51811;DHT22;52468;40.116;18.296;2023-02-11T05:14:59;3.70;79.00
51811;DHT22;52468;40.116;18.296;2023-02-11T05:17:27;3.70;79.10
51811;DHT22;52468;40.116;18.296;2023-02-11T05:19:55;3.60;79.20
51811;DHT22;52468;40.116;18.296;2023-02-11T05:22:23;3.60;79.30
51811;DHT22;52468;40.116;18.296;2023-02-11T05:24:51;3.60;79.30
51811;DHT22;52468;40.116;18.296;2023-02-11T05:27:19;3.60;79.30
51811;DHT22;52468;40.116;18.296;2023-02-11T05:29:46;3.60;79.30
51811;DHT22;52468;40.116;18.296;2023-02-11T05:32:14;3.50;79.30
51811;DHT22;52468;40.116;18.296;2023-02-11T05:34:42;3.60;79.30
51811;DHT22;52468;40.116;18.296;2023-02-11T05:37:10;3.60;79.40
51811;DHT22;52468;40.116;18.296;2023-02-11T05:39:38;3.50;79.60
51811;DHT22;52468;40.116;18.296;2023-02-11T05:42:06;3.60;79.50
51811;DHT22;52468;40.116;18.296;2023-02-11T05:44:33;3.60;79.70
51811;DHT22;52468;40.116;18.296;2023-02-11T05:47:01;3.60;79.70
51811;DHT22;52468;40.116;18.296;2023-02-11T05:49:29;3.60;79.50
51811;DHT22;52468;40.116;18.296;2023-02-11T05:51:57;3.60;79.50
51811;DHT22;52468;40.116;18.296;2023-02-11T05:54:25;3.60;79.40
51811;DHT22;52468;40.116;18.296;2023-02-11T05:56:53;3.70;79.60
51811;DHT22;52468;40.116;18.296;2023-02-11T05:59:21;3.70;79.60
51811;DHT22;52468;40.116;18.296;2023-02-11T06:01:48;3.70;79.50
51811;DHT22;52468;40.116;18.296;2023-02-11T06:04:16;3.70;79.70
51811;DHT22;52468;40.116;18.296;2023-02-11T06:06:44;3.70;79.80
51811;DHT22;52468;40.116;18.296;2023-02-11T06:09:12;3.80;80.00
51811;DHT22;52468;40.116;18.296;2023-02-11T06:11:39;3.90;79.90
51811;DHT22;52468;40.116;18.296;2023-02-11T06:14:07;3.90;79.90
51811;DHT22;52468;40.116;18.296;2023-02-11T06:16:36;3.90;80.20
51811;DHT22;52468;40.116;18.296;2023-02-11T06:19:04;4.00;80.40
51811;DHT22;52468;40.116;18.296;2023-02-11T06:21:32;4.10;80.60
51811;DHT22;52468;40.116;18.296;2023-02-11T06:24:10;4.30;80.50
51811;DHT22;52468;40.116;18.296;2023-02-11T06:26:38;4.40;80.40
51811;DHT22;52468;40.116;18.296;2023-02-11T06:29:06;4.70;80.30
51811;DHT22;52468;40.116;18.296;2023-02-11T06:31:36;4.90;79.80
51811;DHT22;52468;40.116;18.296;2023-02-11T06:34:04;5.10;79.50
51811;DHT22;52468;40.116;18.296;2023-02-11T06:36:32;5.30;79.20
51811;DHT22;52468;40.116;18.296;2023-02-11T06:39:01;5.50;79.00
51811;DHT22;52468;40.116;18.296;2023-02-11T06:41:29;5.60;78.70
51811;DHT22;52468;40.116;18.296;2023-02-11T06:43:57;5.80;78.80
51811;DHT22;52468;40.116;18.296;2023-02-11T06:46:25;5.90;78.60
51811;DHT22;52468;40.116;18.296;2023-02-11T06:48:53;6.10;78.50
51811;DHT22;52468;40.116;18.296;2023-02-11T06:51:20;6.20;78.30
51811;DHT22;52468;40.116;18.296;2023-02-11T06:53:49;6.40;78.20
51811;DHT22;52468;40.116;18.296;2023-02-11T06:56:21;6.60;78.10
51811;DHT22;52468;40.116;18.296;2023-02-11T06:58:55;6.80;78.30
51811;DHT22;52468;40.116;18.296;2023-02-11T07:01:24;7.00;78.10
51811;DHT22;52468;40.116;18.296;2023-02-11T07:03:53;7.20;78.00
51811;DHT22;52468;40.116;18.296;2023-02-11T07:06:23;7.50;77.60
51811;DHT22;52468;40.116;18.296;2023-02-11T07:08:54;7.70;77.10
51811;DHT22;52468;40.116;18.296;2023-02-11T07:11:24;7.90;77.20
51811;DHT22;52468;40.116;18.296;2023-02-11T07:13:55;8.00;76.70
51811;DHT22;52468;40.116;18.296;2023-02-11T07:16:23;8.10;76.50
51811;DHT22;52468;40.116;18.296;2023-02-11T07:18:51;8.30;76.10
51811;DHT22;52468;40.116;18.296;2023-02-11T07:21:22;8.50;75.70
51811;DHT22;52468;40.116;18.296;2023-02-11T07:23:53;8.60;75.70
51811;DHT22;52468;40.116;18.296;2023-02-11T07:26:22;8.70;75.20
51811;DHT22;52468;40.116;18.296;2023-02-11T07:28:51;8.70;74.60
51811;DHT22;52468;40.116;18.296;2023-02-11T07:31:25;8.80;74.10
51811;DHT22;52468;40.116;18.296;2023-02-11T07:33:55;8.80;74.20
51811;DHT22;52468;40.116;18.296;2023-02-11T07:36:24;9.00;74.20
51811;DHT22;52468;40.116;18.296;2023-02-11T07:38:52;9.00;73.40
51811;DHT22;52468;40.116;18.296;2023-02-11T07:41:21;9.10;73.30
51811;DHT22;52468;40.116;18.296;2023-02-11T07:43:51;9.20;73.50
51811;DHT22;52468;40.116;18.296;2023-02-11T07:48:48;9.50;72.70
51811;DHT22;52468;40.116;18.296;2023-02-11T07:51:18;9.60;72.30
51811;DHT22;52468;40.116;18.296;2023-02-11T07:53:46;9.70;71.60
51811;DHT22;52468;40.116;18.296;2023-02-11T07:56:15;9.70;70.90
51811;DHT22;52468;40.116;18.296;2023-02-11T07:58:44;9.80;71.00
51811;DHT22;52468;40.116;18.296;2023-02-11T08:01:23;9.90;70.60
51811;DHT22;52468;40.116;18.296;2023-02-11T08:03:52;10.00;70.30
51811;DHT22;52468;40.116;18.296;2023-02-11T08:06:22;10.10;70.20
51811;DHT22;52468;40.116;18.296;2023-02-11T08:08:51;10.20;69.20
51811;DHT22;52468;40.116;18.296;2023-02-11T08:11:28;10.30;69.00
51811;DHT22;52468;40.116;18.296;2023-02-11T08:13:56;10.30;68.10
51811;DHT22;52468;40.116;18.296;2023-02-11T08:16:28;10.40;68.30
51811;DHT22;52468;40.116;18.296;2023-02-11T08:18:58;10.40;68.20
51811;DHT22;52468;40.116;18.296;2023-02-11T08:21:27;10.50;67.90
51811;DHT22;52468;40.116;18.296;2023-02-11T08:23:55;10.60;67.70
51811;DHT22;52468;40.116;18.296;2023-02-11T08:26:28;10.80;67.30
51811;DHT22;52468;40.116;18.296;2023-02-11T08:28:57;10.80;66.70
51811;DHT22;52468;40.116;18.296;2023-02-11T08:31:31;11.00;66.40
51811;DHT22;52468;40.116;18.296;2023-02-11T08:34:00;11.00;66.50
51811;DHT22;52468;40.116;18.296;2023-02-11T08:36:34;11.20;65.80
51811;DHT22;52468;40.116;18.296;2023-02-11T08:39:10;11.30;65.20
51811;DHT22;52468;40.116;18.296;2023-02-11T08:41:47;11.30;64.80
51811;DHT22;52468;40.116;18.296;2023-02-11T08:44:18;11.40;64.80
51811;DHT22;52468;40.116;18.296;2023-02-11T08:46:47;11.50;64.90
51811;DHT22;52468;40.116;18.296;2023-02-11T08:49:15;11.60;64.70
51811;DHT22;52468;40.116;18.296;2023-02-11T08:51:44;11.80;63.90
51811;DHT22;52468;40.116;18.296;2023-02-11T08:54:12;11.80;63.70
51811;DHT22;52468;40.116;18.296;2023-02-11T08:56:41;11.90;63.70
51811;DHT22;52468;40.116;18.296;2023-02-11T08:59:13;11.90;63.80
51811;DHT22;52468;40.116;18.296;2023-02-11T09:01:41;12.00;63.10
51811;DHT22;52468;40.116;18.296;2023-02-11T09:04:10;12.20;62.70
51811;DHT22;52468;40.116;18.296;2023-02-11T09:06:38;12.10;62.20
51811;DHT22;52468;40.116;18.296;2023-02-11T09:09:10;12.10;62.20
51811;DHT22;52468;40.116;18.296;2023-02-11T09:11:41;12.20;61.80
51811;DHT22;52468;40.116;18.296;2023-02-11T09:14:21;12.30;61.60
51811;DHT22;52468;40.116;18.296;2023-02-11T09:16:49;12.30;61.80
51811;DHT22;52468;40.116;18.296;2023-02-11T09:19:19;12.40;61.40
51811;DHT22;52468;40.116;18.296;2023-02-11T09:21:47;12.50;61.00
51811;DHT22;52468;40.116;18.296;2023-02-11T09:24:15;12.60;59.80
51811;DHT22;52468;40.116;18.296;2023-02-11T09:26:47;12.60;60.10
51811;DHT22;52468;40.116;18.296;2023-02-11T09:29:17;13.00;59.30
51811;DHT22;52468;40.116;18.296;2023-02-11T09:31:44;13.00;59.40
51811;DHT22;52468;40.116;18.296;2023-02-11T09:34:14;13.00;58.90
51811;DHT22;52468;40.116;18.296;2023-02-11T09:36:42;12.90;58.20
51811;DHT22;52468;40.116;18.296;2023-02-11T09:39:18;12.80;58.10
51811;DHT22;52468;40.116;18.296;2023-02-11T09:42:14;13.00;57.80
51811;DHT22;52468;40.116;18.296;2023-02-11T09:44:46;13.10;56.50
51811;DHT22;52468;40.116;18.296;2023-02-11T09:48:01;13.50;54.00
51811;DHT22;52468;40.116;18.296;2023-02-11T09:50:34;13.80;53.30
51811;DHT22;52468;40.116;18.296;2023-02-11T09:53:04;14.30;51.90
51811;DHT22;52468;40.116;18.296;2023-02-11T09:55:39;14.30;50.80
51811;DHT22;52468;40.116;18.296;2023-02-11T09:58:32;14.00;50.70
51811;DHT22;52468;40.116;18.296;2023-02-11T10:04:06;13.70;51.10
51811;DHT22;52468;40.116;18.296;2023-02-11T10:09:20;14.30;50.00
51811;DHT22;52468;40.116;18.296;2023-02-11T10:14:33;14.00;50.80
51811;DHT22;52468;40.116;18.296;2023-02-11T10:22:53;14.00;50.90
51811;DHT22;52468;40.116;18.296;2023-02-11T10:28:14;14.60;49.70
51811;DHT22;52468;40.116;18.296;2023-02-11T10:31:07;14.50;49.30
51811;DHT22;52468;40.116;18.296;2023-02-11T10:36:15;14.60;49.30
51811;DHT22;52468;40.116;18.296;2023-02-11T10:38:44;14.20;50.80
51811;DHT22;52468;40.116;18.296;2023-02-11T10:41:31;14.30;51.10
51811;DHT22;52468;40.116;18.296;2023-02-11T10:44:00;14.60;49.50
51811;DHT22;52468;40.116;18.296;2023-02-11T10:46:35;14.40;49.20
51811;DHT22;52468;40.116;18.296;2023-02-11T10:49:03;14.10;50.00
51811;DHT22;52468;40.116;18.296;2023-02-11T10:51:32;14.30;50.50
51811;DHT22;52468;40.116;18.296;2023-02-11T10:56:34;14.30;49.60
51811;DHT22;52468;40.116;18.296;2023-02-11T10:59:13;14.10;48.90
51811;DHT22;52468;40.116;18.296;2023-02-11T11:01:50;14.10;48.90
51811;DHT22;52468;40.116;18.296;2023-02-11T11:07:21;14.80;48.00
51811;DHT22;52468;40.116;18.296;2023-02-11T11:10:33;15.00;47.00
51811;DHT22;52468;40.116;18.296;2023-02-11T11:13:02;14.80;47.20
51811;DHT22;52468;40.116;18.296;2023-02-11T11:15:31;14.50;48.00
51811;DHT22;52468;40.116;18.296;2023-02-11T11:18:13;14.60;48.70
51811;DHT22;52468;40.116;18.296;2023-02-11T11:20:56;14.80;48.30
51811;DHT22;52468;40.116;18.296;2023-02-11T11:23:27;15.00;47.70
51811;DHT22;52468;40.116;18.296;2023-02-11T11:26:13;15.20;47.50
51811;DHT22;52468;40.116;18.296;2023-02-11T11:31:21;14.60;46.40
51811;DHT22;52468;40.116;18.296;2023-02-11T11:33:52;14.50;46.70
51811;DHT22;52468;40.116;18.296;2023-02-11T11:36:48;14.90;47.50
51811;DHT22;52468;40.116;18.296;2023-02-11T11:39:21;15.20;47.50
51811;DHT22;52468;40.116;18.296;2023-02-11T11:42:32;14.80;48.10
51811;DHT22;52468;40.116;18.296;2023-02-11T11:44:40;14.40;49.10
51811;DHT22;52468;40.116;18.296;2023-02-11T11:50:04;14.70;49.50
51811;DHT22;52468;40.116;18.296;2023-02-11T11:55:44;14.90;49.00
51811;DHT22;52468;40.116;18.296;2023-02-11T11:58:20;14.80;49.10
51811;DHT22;52468;40.116;18.296;2023-02-11T12:01:20;14.60;49.40
51811;DHT22;52468;40.116;18.296;2023-02-11T12:09:23;14.50;49.30
51811;DHT22;52468;40.116;18.296;2023-02-11T12:26:23;14.40;49.40
51811;DHT22;52468;40.116;18.296;2023-02-11T12:35:09;14.80;49.40
51811;DHT22;52468;40.116;18.296;2023-02-11T12:40:45;14.80;50.50
51811;DHT22;52468;40.116;18.296;2023-02-11T12:43:21;14.90;49.00
51811;DHT22;52468;40.116;18.296;2023-02-11T12:49:19;14.40;51.50
51811;DHT22;52468;40.116;18.296;2023-02-11T12:52:04;14.10;53.10
51811;DHT22;52468;40.116;18.296;2023-02-11T12:54:46;14.50;52.30
51811;DHT22;52468;40.116;18.296;2023-02-11T12:57:22;14.40;51.80
51811;DHT22;52468;40.116;18.296;2023-02-11T13:00:02;14.50;52.20
51811;DHT22;52468;40.116;18.296;2023-02-11T13:06:03;14.60;51.20
51811;DHT22;52468;40.116;18.296;2023-02-11T13:08:47;14.30;51.60
51811;DHT22;52468;40.116;18.296;2023-02-11T13:11:34;14.50;52.20
51811;DHT22;52468;40.116;18.296;2023-02-11T13:16:40;14.80;50.50
51811;DHT22;52468;40.116;18.296;2023-02-11T13:35:32;14.10;53.10
51811;DHT22;52468;40.116;18.296;2023-02-11T13:40:44;13.80;53.90
51811;DHT22;52468;40.116;18.296;2023-02-11T13:43:21;13.80;54.50
51811;DHT22;52468;40.116;18.296;2023-02-11T13:45:51;13.80;54.60
51811;DHT22;52468;40.116;18.296;2023-02-11T13:48:25;13.90;54.30
51811;DHT22;52468;40.116;18.296;2023-02-11T13:50:57;13.70;54.30
51811;DHT22;52468;40.116;18.296;2023-02-11T13:53:26;13.70;54.50
51811;DHT22;52468;40.116;18.296;2023-02-11T13:56:08;13.70;54.80
51811;DHT22;52468;40.116;18.296;2023-02-11T13:58:46;14.00;54.30
51811;DHT22;52468;40.116;18.296;2023-02-11T14:08:12;14.40;52.70
51811;DHT22;52468;40.116;18.296;2023-02-11T14:16:18;14.50;52.40
51811;DHT22;52468;40.116;18.296;2023-02-11T14:19:03;14.20;53.00
51811;DHT22;52468;40.116;18.296;2023-02-11T14:21:34;14.20;53.00
51811;DHT22;52468;40.116;18.296;2023-02-11T14:29:37;14.20;53.30
51811;DHT22;52468;40.116;18.296;2023-02-11T14:40:38;14.70;52.40
51811;DHT22;52468;40.116;18.296;2023-02-11T14:43:25;14.50;52.40
51811;DHT22;52468;40.116;18.296;2023-02-11T14:45:57;14.30;53.30
51811;DHT22;52468;40.116;18.296;2023-02-11T14:48:39;14.30;52.60
51811;DHT22;52468;40.116;18.296;2023-02-11T14:51:15;14.10;52.90
51811;DHT22;52468;40.116;18.296;2023-02-11T14:53:49;14.10;53.30
51811;DHT22;52468;40.116;18.296;2023-02-11T14:56:27;14.10;53.40
51811;DHT22;52468;40.116;18.296;2023-02-11T14:58:57;14.10;53.60
51811;DHT22;52468;40.116;18.296;2023-02-11T15:01:34;14.00;53.80
51811;DHT22;52468;40.116;18.296;2023-02-11T15:04:04;14.00;54.00
51811;DHT22;52468;40.116;18.296;2023-02-11T15:06:35;13.90;54.30
51811;DHT22;52468;40.116;18.296;2023-02-11T15:09:15;13.80;54.70
51811;DHT22;52468;40.116;18.296;2023-02-11T15:11:51;13.70;55.40
51811;DHT22;52468;40.116;18.296;2023-02-11T15:14:29;13.60;55.60
51811;DHT22;52468;40.116;18.296;2023-02-11T15:17:05;13.60;55.70
51811;DHT22;52468;40.116;18.296;2023-02-11T15:19:37;13.60;55.70
51811;DHT22;52468;40.116;18.296;2023-02-11T15:22:31;13.60;55.90
51811;DHT22;52468;40.116;18.296;2023-02-11T15:25:20;13.60;55.80
51811;DHT22;52468;40.116;18.296;2023-02-11T15:27:52;13.50;55.90
51811;DHT22;52468;40.116;18.296;2023-02-11T15:33:00;13.00;57.00
51811;DHT22;52468;40.116;18.296;2023-02-11T15:35:35;12.90;57.60
51811;DHT22;52468;40.116;18.296;2023-02-11T15:38:04;12.80;57.80
51811;DHT22;52468;40.116;18.296;2023-02-11T15:40:34;12.70;58.00
51811;DHT22;52468;40.116;18.296;2023-02-11T15:43:08;12.60;58.00
51811;DHT22;52468;40.116;18.296;2023-02-11T15:48:27;12.30;58.70
51811;DHT22;52468;40.116;18.296;2023-02-11T15:51:02;12.30;58.70
51811;DHT22;52468;40.116;18.296;2023-02-11T15:53:37;12.20;59.00
51811;DHT22;52468;40.116;18.296;2023-02-11T15:56:28;12.10;59.30
51811;DHT22;52468;40.116;18.296;2023-02-11T15:58:59;12.00;59.50
51811;DHT22;52468;40.116;18.296;2023-02-11T16:01:30;11.90;60.00
51811;DHT22;52468;40.116;18.296;2023-02-11T16:04:00;11.80;60.20
51811;DHT22;52468;40.116;18.296;2023-02-11T16:06:38;11.60;60.80
51811;DHT22;52468;40.116;18.296;2023-02-11T16:14:23;11.30;61.70
51811;DHT22;52468;40.116;18.296;2023-02-11T16:16:53;11.20;62.30
51811;DHT22;52468;40.116;18.296;2023-02-11T16:19:24;11.10;62.40
51811;DHT22;52468;40.116;18.296;2023-02-11T16:21:55;11.00;62.80
51811;DHT22;52468;40.116;18.296;2023-02-11T16:24:31;10.90;63.40
51811;DHT22;52468;40.116;18.296;2023-02-11T16:27:01;10.80;63.60
51811;DHT22;52468;40.116;18.296;2023-02-11T16:29:31;10.80;63.70
51811;DHT22;52468;40.116;18.296;2023-02-11T16:32:16;10.70;64.10
51811;DHT22;52468;40.116;18.296;2023-02-11T16:34:44;10.60;64.50
51811;DHT22;52468;40.116;18.296;2023-02-11T16:37:12;10.50;64.60
51811;DHT22;52468;40.116;18.296;2023-02-11T16:39:40;10.50;64.80
51811;DHT22;52468;40.116;18.296;2023-02-11T16:42:09;10.40;65.00
51811;DHT22;52468;40.116;18.296;2023-02-11T16:44:39;10.30;65.20
51811;DHT22;52468;40.116;18.296;2023-02-11T16:47:19;10.30;65.50
51811;DHT22;52468;40.116;18.296;2023-02-11T16:49:49;10.20;65.90
51811;DHT22;52468;40.116;18.296;2023-02-11T16:52:17;10.20;65.80
51811;DHT22;52468;40.116;18.296;2023-02-11T16:54:47;10.10;65.90
51811;DHT22;52468;40.116;18.296;2023-02-11T16:57:23;10.10;66.10
51811;DHT22;52468;40.116;18.296;2023-02-11T16:59:52;10.00;66.30
51811;DHT22;52468;40.116;18.296;2023-02-11T17:02:29;10.00;66.50
51811;DHT22;52468;40.116;18.296;2023-02-11T17:04:59;10.00;66.40
51811;DHT22;52468;40.116;18.296;2023-02-11T17:07:28;10.00;66.50
51811;DHT22;52468;40.116;18.296;2023-02-11T17:09:56;9.90;66.60
51811;DHT22;52468;40.116;18.296;2023-02-11T17:12:24;9.90;66.50
51811;DHT22;52468;40.116;18.296;2023-02-11T17:14:52;9.80;66.60
51811;DHT22;52468;40.116;18.296;2023-02-11T17:17:20;9.80;66.80
51811;DHT22;52468;40.116;18.296;2023-02-11T17:19:51;9.70;66.90
51811;DHT22;52468;40.116;18.296;2023-02-11T17:22:20;9.70;67.20
51811;DHT22;52468;40.116;18.296;2023-02-11T17:24:47;9.60;67.30
51811;DHT22;52468;40.116;18.296;2023-02-11T17:27:16;9.70;67.50
51811;DHT22;52468;40.116;18.296;2023-02-11T17:29:44;9.60;67.70
51811;DHT22;52468;40.116;18.296;2023-02-11T17:32:12;9.60;67.80
51811;DHT22;52468;40.116;18.296;2023-02-11T17:34:40;9.60;67.90
51811;DHT22;52468;40.116;18.296;2023-02-11T17:37:08;9.60;68.00
51811;DHT22;52468;40.116;18.296;2023-02-11T17:39:37;9.50;68.30
51811;DHT22;52468;40.116;18.296;2023-02-11T17:42:05;9.50;68.50
51811;DHT22;52468;40.116;18.296;2023-02-11T17:44:33;9.50;68.90
51811;DHT22;52468;40.116;18.296;2023-02-11T17:47:01;9.50;69.10
51811;DHT22;52468;40.116;18.296;2023-02-11T17:49:29;9.50;69.40
51811;DHT22;52468;40.116;18.296;2023-02-11T17:51:57;9.50;69.60
51811;DHT22;52468;40.116;18.296;2023-02-11T17:54:25;9.50;69.80
51811;DHT22;52468;40.116;18.296;2023-02-11T17:56:53;9.50;69.80
51811;DHT22;52468;40.116;18.296;2023-02-11T17:59:24;9.50;69.90
51811;DHT22;52468;40.116;18.296;2023-02-11T18:01:52;9.60;69.90
51811;DHT22;52468;40.116;18.296;2023-02-11T18:18:28;9.50;70.10
51811;DHT22;52468;40.116;18.296;2023-02-11T18:20:58;9.20;71.90
51811;DHT22;52468;40.116;18.296;2023-02-11T18:23:26;9.20;71.60
51811;DHT22;52468;40.116;18.296;2023-02-11T18:25:54;9.20;71.30
51811;DHT22;52468;40.116;18.296;2023-02-11T18:28:22;9.10;71.40
51811;DHT22;52468;40.116;18.296;2023-02-11T18:30:58;9.10;71.50
51811;DHT22;52468;40.116;18.296;2023-02-11T18:33:27;9.10;71.60
51811;DHT22;52468;40.116;18.296;2023-02-11T18:35:55;9.00;71.50
51811;DHT22;52468;40.116;18.296;2023-02-11T18:38:24;8.90;71.70
51811;DHT22;52468;40.116;18.296;2023-02-11T18:40:51;8.90;71.90
51811;DHT22;52468;40.116;18.296;2023-02-11T18:43:23;8.80;72.00
51811;DHT22;52468;40.116;18.296;2023-02-11T18:45:51;8.70;72.20
51811;DHT22;52468;40.116;18.296;2023-02-11T18:48:19;8.60;72.50
51811;DHT22;52468;40.116;18.296;2023-02-11T18:50:46;8.60;72.50
51811;DHT22;52468;40.116;18.296;2023-02-11T18:53:14;8.50;72.70
51811;DHT22;52468;40.116;18.296;2023-02-11T18:55:43;8.50;72.70
51811;DHT22;52468;40.116;18.296;2023-02-11T18:58:12;8.40;73.00
51811;DHT22;52468;40.116;18.296;2023-02-11T19:00:43;8.40;73.20
51811;DHT22;52468;40.116;18.296;2023-02-11T19:03:11;8.30;73.20
51811;DHT22;52468;40.116;18.296;2023-02-11T19:05:46;8.30;73.40
51811;DHT22;52468;40.116;18.296;2023-02-11T19:08:15;8.30;73.30
51811;DHT22;52468;40.116;18.296;2023-02-11T19:10:46;8.30;73.50
51811;DHT22;52468;40.116;18.296;2023-02-11T19:13:14;8.20;73.60
51811;DHT22;52468;40.116;18.296;2023-02-11T19:15:43;8.20;73.80
51811;DHT22;52468;40.116;18.296;2023-02-11T19:18:13;8.10;73.90